Ancelle (05) - F

Date : 28/08/2014
Distance : 2,420 km

Place Nom Licence Catégorie Club Temps min/km CN à J-60 Points Différence Nouveau CN
1 ANNE Brigitte 1672 D60 0111RA 0:35:47 14'47 3983 4749 +766 3975
2 EVEN Gabriel 2789 H70 2206BR 0:37:18 15'24 2920 4555 +1635 3682
3 ABISSE Jacques 703 H70 2508FC 0:38:48 16'01 3897 4379 +482 3975
4 KENANE Abdelkader 1448 H75 5501LO 0:40:32 16'44 3869 4192 +323 3787
5 BASTIN-HALMES Hildegard 24210 D60 2508FC 0:42:06 17'23 3990 4036 +46 3299
6 BONNET Christine 2400 D60 5402LO 0:42:43 17'39 4362 3978 -384 4444
7 CUSTER Evan 28276 H70 0615AZ 0:43:23 17'55 1940 3917 +1977 2722
8 GANDON J-Claude 249 H70 6906RA 0:43:36 18'00 3508 3897 +389 3620
9 LEGUEN Joseph 8138 H70 2208BR 0:44:00 18'10 2806 3862 +1056 3438
10 DUBROCA Monique 633 D65 3308AQ 0:45:44 18'53 4418 3715 -703 4287
11 RICHARD Nicole 14245 D65 0207PI 0:45:51 18'56 3267 3706 +439 3226
12 LARMINACH Andre 646 H70 3308AQ 0:46:13 19'05 4230 3677 -553 4070
13 SIMONET Jean 930 H70 7707IF 0:46:43 19'18 4368 3637 -731 4370
14 PERMINGEAT Helene 21054 D60 2606RA 0:48:22 19'59 2988 3513 +525 3096
15 ELIAS Jean-claude 24745 H70 1307PR 0:48:56 20'13 3588 3472 -116 3578
16 ALLIES Anne 23146 D60 4802LR 0:49:51 20'35 0 3409 2143
17 BLASCO Serge 396 H70 2406AQ 0:50:00 20'39 3487 3398 -89 3614
18 GERBEAUX Marie-jeanne 22417 D60 6205NO 0:51:03 21'05 3202 3328 +126 3133
19 COUPEY Guy 5118 H70 2704NM 0:52:10 21'33 2636 3257 +621 2796
20 BLASCO Nicole 395 D65 2406AQ 0:52:11 21'33 3768 3256 -512 3575
21 PUECH Francoise 1174 D60 8311AZ 0:52:16 21'35 0 3251 2687
22 BENACEK Vaclav 2368 H70 6806AL 0:54:00 22'18 3726 3147 -579 3644
23 EGGLI Margrit 27392 D65 6803AL 0:54:15 22'25 3590 3132 -458 3590
24 DEVILLE Nelly 2401 D65 5402LO 0:54:22 22'27 4369 3125 -1244 4382
25 DIEUDONNE Madeleine 1380 D65 7808IF 0:54:26 22'29 3665 3122 -543 3607
26 ENARD Monique 2664 D60 2101BO 0:54:34 22'32 3596 3114 -482 3550
27 VOGT Christiane 2557 D65 6709AL 0:56:26 23'19 3225 3011 -214 3107
28 RIFFARD J-Claude 2445 H70 5702LO 0:56:40 23'24 2976 2999 +23 3098
29 OUDIN M-Reine 7574 D65 6804AL 0:58:42 24'15 3359 2895 -464 3295
30 FRANTZ Francoise 6886 D65 2904BR 0:59:25 24'33 3065 2860 -205 3065
31 NATALI Annie 1106 D65 8105MP 0:59:53 24'44 2668 2837 +169 2753
32 EUZEN J-Paul 16403 H70 6911RA 1:02:23 25'46 3533 2724 -809 3263
33 JEANPIERRE M-Therese 3302 D70 8809LO 1:02:33 25'50 2966 2717 -249 2840
34 SIMONET Marie 931 D65 7707IF 1:03:15 26'08 3149 2686 -463 3064
35 DOMENICI J-Claude 1052 H75 1705PC 1:03:22 26'11 3719 2682 -1037 3508
36 PALUD Joel 14253 H70 8319AZ 1:03:24 26'11 1320 2680 +1360 1671
37 BOUSSER Marie-Rose 1844 D60 5702LO 1:05:30 27'03 3408 2594 -814 3391
38 LEMERCIER Jocelyne 2474 D60 5407LO 1:05:41 27'08 2689 2587 -102 2564
39 GUIGUET Michel 455 H70 1303PR 1:06:00 27'16 3934 2575 -1359 3798
40 GEOFFROY Nicole 6443 D65 3408LR 1:06:04 27'18 2797 2572 -225 2341
41 MONTANARI Colette 2533 D65 5703LO 1:06:07 27'19 3056 2570 -486 2985
42 POGU Paulette 4671 D60 5402LO 1:06:37 27'31 2879 2551 -328 2995
43 MOULIERE M-Bernadette 2888 D70 0207PI 1:06:48 27'36 3233 2544 -689 3207
44 ANFOSSI Giuseppe 14235 H80 0615AZ 1:06:55 27'39 3002 2539 -463 2731
45 ROBERT Martine 1087 D65 7004FC 1:08:18 28'13 3475 2488 -987 3579
46 ABISSE Gisele 701 D70 2508FC 1:09:47 28'50 3116 2435 -681 2845
47 HABERKORN Didier 2716 H75 2105BO 1:10:37 29'10 2324 2406 +82 2345
48 GROSJEAN A-Marie 12059 D75 6913RA 1:12:24 29'55 2556 2347 -209 2242
49 DECHAVANNE Denise 3462 D60 6911RA 1:18:26 32'24 1965 2166 +201 1932
50 LECOYER Annick 2885 D60 0207PI 1:20:35 33'17 2946 2109 -837 2947
51 CABON Monique 96 D60 2904BR 1:20:56 33'26 2729 2099 -630 2687
52 RIFFARD M-Lucie 2446 D70 5702LO 1:21:51 33'49 2526 2076 -450 2546
53 ETIENNE Bernadette 15324 D60 8807LO 1:24:02 34'43 2622 2022 -600 2397
54 POUPIER Claudine 13991 D65 7203PL 1:24:28 34'54 2487 2012 -475 2487
55 KPOKOU Christiane 3665 D60 3809RA 1:25:31 35'20 0 1987 1906
56 DODIN Genevieve 4392 D65 8809LO 1:25:33 35'21 2125 1986 -139 2110
57 ASSANTE Gerard 19382 H70 1303PR 1:26:11 35'36 3336 1972 -1364 3158
58 BASTIEN-FATH Nicole 8954 D65 5402LO 1:26:16 35'38 2027 1970 -57 2048
59 DRAULT J-Raymond 4234 H70 8702LI 1:27:20 36'05 2810 1946 -864 2590
60 GUET Martine 11810 D60 6906RA 1:29:11 36'51 2811 1905 -906 2746
61 RUAUD Agnes 739 D60 2508FC 1:32:56 38'24 1857 1828 -29 1967
62 HELIOT Claude 2349 H70 6906RA 1:35:56 39'38 3107 1771 -1336 2874
63 KIEFFER Mireille 2680 D65 2101BO 1:36:36 39'55 2433 1759 -674 2322
64 ULMER Claudine 11497 D65 1303PR 1:40:44 41'37 2417 1687 -730 2311
65 ALLANCON Claudine 14632 D65 2906BR 1:42:10 42'13 1778 1663 -115 1796
66 LAUNEY Noella 11368 D75 7203PL 1:52:33 46'30 2017 1510 -507 2051
67 LUDEWIG-JAMES Carol 15894 D75 5907NO 2:43:25 67'31 1751 1040 -711 1751
CHAVERNAC Chantal 1417 D75 0615AZ abandon None 661 0 661
DENOUAL Maggali 29773 D35 6008PI abandon None 873 0 1215
LAZAROWICZ Rose-Marie 3598 D65 7512IF abandon None 1703 0 1703
CHAVERNAC Bruno 1416 H80 0615AZ pm None 1419 0 1419
BAUDOIN Annie 16634 D65 0615AZ pm None 1709 0 1322